sensor_id;sensor_type;location;lat;lon;timestamp;P1;durP1;ratioP1;P2;durP2;ratioP2
5847;SDS011;8756;49.29324300;8.70599800;2022-08-19T00:01:54;27.23;;;17.27;;
5847;SDS011;8756;49.29324300;8.70599800;2022-08-19T00:04:23;25.00;;;15.30;;
5847;SDS011;8756;49.29324300;8.70599800;2022-08-19T00:06:52;25.47;;;16.70;;
5847;SDS011;8756;49.29324300;8.70599800;2022-08-19T00:09:19;27.87;;;16.10;;
5847;SDS011;8756;49.29324300;8.70599800;2022-08-19T00:11:46;26.53;;;16.80;;
5847;SDS011;8756;49.29324300;8.70599800;2022-08-19T00:14:13;27.33;;;15.40;;
5847;SDS011;8756;49.29324300;8.70599800;2022-08-19T00:16:41;28.10;;;17.60;;
5847;SDS011;8756;49.29324300;8.70599800;2022-08-19T00:19:08;26.27;;;16.70;;
5847;SDS011;8756;49.29324300;8.70599800;2022-08-19T00:21:34;24.50;;;15.80;;
5847;SDS011;8756;49.29324300;8.70599800;2022-08-19T00:24:04;29.10;;;17.53;;
5847;SDS011;8756;49.29324300;8.70599800;2022-08-19T00:26:33;25.40;;;15.87;;
5847;SDS011;8756;49.29324300;8.70599800;2022-08-19T00:29:00;29.47;;;17.80;;
5847;SDS011;8756;49.29324300;8.70599800;2022-08-19T00:31:26;25.47;;;17.10;;
5847;SDS011;8756;49.29324300;8.70599800;2022-08-19T00:33:53;29.37;;;16.20;;
5847;SDS011;8756;49.29324300;8.70599800;2022-08-19T00:36:19;29.37;;;16.47;;
5847;SDS011;8756;49.29324300;8.70599800;2022-08-19T00:38:45;26.13;;;15.57;;
5847;SDS011;8756;49.29324300;8.70599800;2022-08-19T00:41:14;28.03;;;16.07;;
5847;SDS011;8756;49.29324300;8.70599800;2022-08-19T00:43:59;25.87;;;16.27;;
5847;SDS011;8756;49.29324300;8.70599800;2022-08-19T00:46:28;27.40;;;15.80;;
5847;SDS011;8756;49.29324300;8.70599800;2022-08-19T00:48:55;28.50;;;16.87;;
5847;SDS011;8756;49.29324300;8.70599800;2022-08-19T00:51:22;29.63;;;17.93;;
5847;SDS011;8756;49.29324300;8.70599800;2022-08-19T00:53:51;27.43;;;17.43;;
5847;SDS011;8756;49.29324300;8.70599800;2022-08-19T00:56:19;27.60;;;17.10;;
5847;SDS011;8756;49.29324300;8.70599800;2022-08-19T00:58:44;29.17;;;17.33;;
5847;SDS011;8756;49.29324300;8.70599800;2022-08-19T01:01:10;26.40;;;16.40;;
5847;SDS011;8756;49.29324300;8.70599800;2022-08-19T01:03:36;31.53;;;17.50;;
5847;SDS011;8756;49.29324300;8.70599800;2022-08-19T01:06:01;27.10;;;17.13;;
5847;SDS011;8756;49.29324300;8.70599800;2022-08-19T01:08:27;28.90;;;17.77;;
5847;SDS011;8756;49.29324300;8.70599800;2022-08-19T01:10:54;28.43;;;16.20;;
5847;SDS011;8756;49.29324300;8.70599800;2022-08-19T01:13:23;27.63;;;17.37;;
5847;SDS011;8756;49.29324300;8.70599800;2022-08-19T01:15:55;32.10;;;18.17;;
5847;SDS011;8756;49.29324300;8.70599800;2022-08-19T01:18:23;29.57;;;18.37;;
5847;SDS011;8756;49.29324300;8.70599800;2022-08-19T01:20:49;30.20;;;19.37;;
5847;SDS011;8756;49.29324300;8.70599800;2022-08-19T01:23:16;26.77;;;15.93;;
5847;SDS011;8756;49.29324300;8.70599800;2022-08-19T01:25:50;29.30;;;17.50;;
5847;SDS011;8756;49.29324300;8.70599800;2022-08-19T01:28:18;29.37;;;18.50;;
5847;SDS011;8756;49.29324300;8.70599800;2022-08-19T01:30:46;29.13;;;18.40;;
5847;SDS011;8756;49.29324300;8.70599800;2022-08-19T01:33:13;27.97;;;17.17;;
5847;SDS011;8756;49.29324300;8.70599800;2022-08-19T01:35:39;28.83;;;18.70;;
5847;SDS011;8756;49.29324300;8.70599800;2022-08-19T01:38:07;31.13;;;19.40;;
5847;SDS011;8756;49.29324300;8.70599800;2022-08-19T01:40:37;29.27;;;19.33;;
5847;SDS011;8756;49.29324300;8.70599800;2022-08-19T01:43:04;28.70;;;17.83;;
5847;SDS011;8756;49.29324300;8.70599800;2022-08-19T01:45:31;32.70;;;19.97;;
5847;SDS011;8756;49.29324300;8.70599800;2022-08-19T01:47:58;30.23;;;19.07;;
5847;SDS011;8756;49.29324300;8.70599800;2022-08-19T01:50:24;31.93;;;20.03;;
5847;SDS011;8756;49.29324300;8.70599800;2022-08-19T01:52:50;37.70;;;20.20;;
5847;SDS011;8756;49.29324300;8.70599800;2022-08-19T01:55:18;32.30;;;19.97;;
5847;SDS011;8756;49.29324300;8.70599800;2022-08-19T01:57:50;32.30;;;18.93;;
5847;SDS011;8756;49.29324300;8.70599800;2022-08-19T02:00:21;31.47;;;19.90;;
5847;SDS011;8756;49.29324300;8.70599800;2022-08-19T02:02:48;29.43;;;19.20;;
5847;SDS011;8756;49.29324300;8.70599800;2022-08-19T02:05:14;33.30;;;19.60;;
5847;SDS011;8756;49.29324300;8.70599800;2022-08-19T02:07:42;34.73;;;20.70;;
5847;SDS011;8756;49.29324300;8.70599800;2022-08-19T02:10:11;31.73;;;20.80;;
5847;SDS011;8756;49.29324300;8.70599800;2022-08-19T02:12:40;30.67;;;19.90;;
5847;SDS011;8756;49.29324300;8.70599800;2022-08-19T02:15:05;36.67;;;21.30;;
5847;SDS011;8756;49.29324300;8.70599800;2022-08-19T02:17:32;33.80;;;21.27;;
5847;SDS011;8756;49.29324300;8.70599800;2022-08-19T02:19:58;32.70;;;20.70;;
5847;SDS011;8756;49.29324300;8.70599800;2022-08-19T02:22:24;32.80;;;21.27;;
5847;SDS011;8756;49.29324300;8.70599800;2022-08-19T02:24:52;31.37;;;19.33;;
5847;SDS011;8756;49.29324300;8.70599800;2022-08-19T02:27:19;33.37;;;21.60;;
5847;SDS011;8756;49.29324300;8.70599800;2022-08-19T02:29:48;33.57;;;20.50;;
5847;SDS011;8756;49.29324300;8.70599800;2022-08-19T02:32:15;32.57;;;20.23;;
5847;SDS011;8756;49.29324300;8.70599800;2022-08-19T02:34:43;29.17;;;18.93;;
5847;SDS011;8756;49.29324300;8.70599800;2022-08-19T02:37:09;32.50;;;20.07;;
5847;SDS011;8756;49.29324300;8.70599800;2022-08-19T02:39:54;29.50;;;19.40;;
5847;SDS011;8756;49.29324300;8.70599800;2022-08-19T02:42:20;33.53;;;21.00;;
5847;SDS011;8756;49.29324300;8.70599800;2022-08-19T02:44:46;32.53;;;20.10;;
5847;SDS011;8756;49.29324300;8.70599800;2022-08-19T02:47:11;35.90;;;20.80;;
5847;SDS011;8756;49.29324300;8.70599800;2022-08-19T02:49:39;39.73;;;21.10;;
5847;SDS011;8756;49.29324300;8.70599800;2022-08-19T02:52:05;32.70;;;20.30;;
5847;SDS011;8756;49.29324300;8.70599800;2022-08-19T02:54:30;28.40;;;19.60;;
5847;SDS011;8756;49.29324300;8.70599800;2022-08-19T02:56:56;32.67;;;20.27;;
5847;SDS011;8756;49.29324300;8.70599800;2022-08-19T02:59:21;36.10;;;23.37;;
5847;SDS011;8756;49.29324300;8.70599800;2022-08-19T03:01:47;32.80;;;20.87;;
5847;SDS011;8756;49.29324300;8.70599800;2022-08-19T03:04:13;34.03;;;21.87;;
5847;SDS011;8756;49.29324300;8.70599800;2022-08-19T03:06:41;31.03;;;21.50;;
5847;SDS011;8756;49.29324300;8.70599800;2022-08-19T03:09:09;33.47;;;23.10;;
5847;SDS011;8756;49.29324300;8.70599800;2022-08-19T03:11:35;32.97;;;22.77;;
5847;SDS011;8756;49.29324300;8.70599800;2022-08-19T03:14:02;34.40;;;21.07;;
5847;SDS011;8756;49.29324300;8.70599800;2022-08-19T03:16:29;33.43;;;21.20;;
5847;SDS011;8756;49.29324300;8.70599800;2022-08-19T03:18:56;35.13;;;22.63;;
5847;SDS011;8756;49.29324300;8.70599800;2022-08-19T03:21:26;37.63;;;21.80;;
5847;SDS011;8756;49.29324300;8.70599800;2022-08-19T03:23:54;33.77;;;22.70;;
5847;SDS011;8756;49.29324300;8.70599800;2022-08-19T03:26:21;38.73;;;24.10;;
5847;SDS011;8756;49.29324300;8.70599800;2022-08-19T03:28:47;34.83;;;22.57;;
5847;SDS011;8756;49.29324300;8.70599800;2022-08-19T03:31:14;34.47;;;21.97;;
5847;SDS011;8756;49.29324300;8.70599800;2022-08-19T03:33:43;33.10;;;22.10;;
5847;SDS011;8756;49.29324300;8.70599800;2022-08-19T03:36:11;32.47;;;22.23;;
5847;SDS011;8756;49.29324300;8.70599800;2022-08-19T03:38:43;34.80;;;22.97;;
5847;SDS011;8756;49.29324300;8.70599800;2022-08-19T03:41:18;36.23;;;23.07;;
5847;SDS011;8756;49.29324300;8.70599800;2022-08-19T03:43:45;33.27;;;22.70;;
5847;SDS011;8756;49.29324300;8.70599800;2022-08-19T03:46:13;33.60;;;23.90;;
5847;SDS011;8756;49.29324300;8.70599800;2022-08-19T03:48:41;29.47;;;20.23;;
5847;SDS011;8756;49.29324300;8.70599800;2022-08-19T03:51:14;35.20;;;23.17;;
5847;SDS011;8756;49.29324300;8.70599800;2022-08-19T03:53:42;36.07;;;22.53;;
5847;SDS011;8756;49.29324300;8.70599800;2022-08-19T03:56:09;34.20;;;22.90;;
5847;SDS011;8756;49.29324300;8.70599800;2022-08-19T03:58:35;34.00;;;22.83;;
5847;SDS011;8756;49.29324300;8.70599800;2022-08-19T04:01:02;36.33;;;24.13;;
5847;SDS011;8756;49.29324300;8.70599800;2022-08-19T04:03:33;36.83;;;23.13;;
5847;SDS011;8756;49.29324300;8.70599800;2022-08-19T04:06:08;40.47;;;24.60;;
5847;SDS011;8756;49.29324300;8.70599800;2022-08-19T04:08:42;37.93;;;24.60;;
5847;SDS011;8756;49.29324300;8.70599800;2022-08-19T04:11:09;37.50;;;23.33;;
5847;SDS011;8756;49.29324300;8.70599800;2022-08-19T04:13:37;38.77;;;24.70;;
5847;SDS011;8756;49.29324300;8.70599800;2022-08-19T04:16:03;37.60;;;23.70;;
5847;SDS011;8756;49.29324300;8.70599800;2022-08-19T04:18:30;37.90;;;24.93;;
5847;SDS011;8756;49.29324300;8.70599800;2022-08-19T04:20:57;42.33;;;26.27;;
5847;SDS011;8756;49.29324300;8.70599800;2022-08-19T04:23:23;42.87;;;24.50;;
5847;SDS011;8756;49.29324300;8.70599800;2022-08-19T04:25:49;35.87;;;23.40;;
5847;SDS011;8756;49.29324300;8.70599800;2022-08-19T04:28:14;41.40;;;26.10;;
5847;SDS011;8756;49.29324300;8.70599800;2022-08-19T04:30:44;36.97;;;25.57;;
5847;SDS011;8756;49.29324300;8.70599800;2022-08-19T04:33:12;37.43;;;24.57;;
5847;SDS011;8756;49.29324300;8.70599800;2022-08-19T04:35:41;37.30;;;25.27;;
5847;SDS011;8756;49.29324300;8.70599800;2022-08-19T04:38:10;34.80;;;24.20;;
5847;SDS011;8756;49.29324300;8.70599800;2022-08-19T04:40:43;38.70;;;25.40;;
5847;SDS011;8756;49.29324300;8.70599800;2022-08-19T04:43:29;38.33;;;25.77;;
5847;SDS011;8756;49.29324300;8.70599800;2022-08-19T04:45:56;37.40;;;25.07;;
5847;SDS011;8756;49.29324300;8.70599800;2022-08-19T04:48:22;38.50;;;24.77;;
5847;SDS011;8756;49.29324300;8.70599800;2022-08-19T04:50:52;41.43;;;25.30;;
5847;SDS011;8756;49.29324300;8.70599800;2022-08-19T04:53:23;39.57;;;24.87;;
5847;SDS011;8756;49.29324300;8.70599800;2022-08-19T04:55:50;39.87;;;25.40;;
5847;SDS011;8756;49.29324300;8.70599800;2022-08-19T04:58:16;34.63;;;25.10;;
5847;SDS011;8756;49.29324300;8.70599800;2022-08-19T05:00:42;36.20;;;23.67;;
5847;SDS011;8756;49.29324300;8.70599800;2022-08-19T05:03:08;36.67;;;23.60;;
5847;SDS011;8756;49.29324300;8.70599800;2022-08-19T05:05:37;38.30;;;24.33;;
5847;SDS011;8756;49.29324300;8.70599800;2022-08-19T05:08:06;37.07;;;25.17;;
5847;SDS011;8756;49.29324300;8.70599800;2022-08-19T05:10:34;36.37;;;23.97;;
5847;SDS011;8756;49.29324300;8.70599800;2022-08-19T05:13:01;39.50;;;25.83;;
5847;SDS011;8756;49.29324300;8.70599800;2022-08-19T05:15:27;36.60;;;24.53;;
5847;SDS011;8756;49.29324300;8.70599800;2022-08-19T05:17:53;37.10;;;24.17;;
5847;SDS011;8756;49.29324300;8.70599800;2022-08-19T05:20:38;37.23;;;24.10;;
5847;SDS011;8756;49.29324300;8.70599800;2022-08-19T05:23:22;35.40;;;23.67;;
5847;SDS011;8756;49.29324300;8.70599800;2022-08-19T05:25:48;38.40;;;25.23;;
5847;SDS011;8756;49.29324300;8.70599800;2022-08-19T05:28:15;34.97;;;24.33;;
5847;SDS011;8756;49.29324300;8.70599800;2022-08-19T05:30:41;42.33;;;25.83;;
5847;SDS011;8756;49.29324300;8.70599800;2022-08-19T05:33:09;35.20;;;23.80;;
5847;SDS011;8756;49.29324300;8.70599800;2022-08-19T05:35:37;36.90;;;25.57;;
5847;SDS011;8756;49.29324300;8.70599800;2022-08-19T05:38:04;35.20;;;25.03;;
5847;SDS011;8756;49.29324300;8.70599800;2022-08-19T05:40:33;38.03;;;25.10;;
5847;SDS011;8756;49.29324300;8.70599800;2022-08-19T05:43:01;38.77;;;25.90;;
5847;SDS011;8756;49.29324300;8.70599800;2022-08-19T05:45:27;36.07;;;24.90;;
5847;SDS011;8756;49.29324300;8.70599800;2022-08-19T05:47:53;35.27;;;24.43;;
5847;SDS011;8756;49.29324300;8.70599800;2022-08-19T05:50:19;36.50;;;23.80;;
5847;SDS011;8756;49.29324300;8.70599800;2022-08-19T05:52:45;38.73;;;25.83;;
5847;SDS011;8756;49.29324300;8.70599800;2022-08-19T05:55:10;38.63;;;22.83;;
5847;SDS011;8756;49.29324300;8.70599800;2022-08-19T05:57:36;34.73;;;23.80;;
5847;SDS011;8756;49.29324300;8.70599800;2022-08-19T06:00:03;35.73;;;25.17;;
5847;SDS011;8756;49.29324300;8.70599800;2022-08-19T06:02:34;34.53;;;22.87;;
5847;SDS011;8756;49.29324300;8.70599800;2022-08-19T06:05:00;35.57;;;24.03;;
5847;SDS011;8756;49.29324300;8.70599800;2022-08-19T06:07:27;32.73;;;22.43;;
5847;SDS011;8756;49.29324300;8.70599800;2022-08-19T06:09:53;34.00;;;22.60;;
5847;SDS011;8756;49.29324300;8.70599800;2022-08-19T06:12:19;36.60;;;23.57;;
5847;SDS011;8756;49.29324300;8.70599800;2022-08-19T06:14:51;37.27;;;22.83;;
5847;SDS011;8756;49.29324300;8.70599800;2022-08-19T06:17:17;33.80;;;23.10;;
5847;SDS011;8756;49.29324300;8.70599800;2022-08-19T06:19:43;35.47;;;24.00;;
5847;SDS011;8756;49.29324300;8.70599800;2022-08-19T06:22:09;39.30;;;23.40;;
5847;SDS011;8756;49.29324300;8.70599800;2022-08-19T06:24:36;36.57;;;25.13;;
5847;SDS011;8756;49.29324300;8.70599800;2022-08-19T06:27:03;35.07;;;24.00;;
5847;SDS011;8756;49.29324300;8.70599800;2022-08-19T06:29:30;39.50;;;24.57;;
5847;SDS011;8756;49.29324300;8.70599800;2022-08-19T06:31:57;35.97;;;23.43;;
5847;SDS011;8756;49.29324300;8.70599800;2022-08-19T06:34:25;33.17;;;23.90;;
5847;SDS011;8756;49.29324300;8.70599800;2022-08-19T06:36:53;38.40;;;25.93;;
5847;SDS011;8756;49.29324300;8.70599800;2022-08-19T06:39:21;32.50;;;22.03;;
5847;SDS011;8756;49.29324300;8.70599800;2022-08-19T06:41:49;35.17;;;23.80;;
5847;SDS011;8756;49.29324300;8.70599800;2022-08-19T06:44:17;32.33;;;21.10;;
5847;SDS011;8756;49.29324300;8.70599800;2022-08-19T06:46:44;34.83;;;21.27;;
5847;SDS011;8756;49.29324300;8.70599800;2022-08-19T06:49:10;34.40;;;23.07;;
5847;SDS011;8756;49.29324300;8.70599800;2022-08-19T06:51:39;41.63;;;23.63;;
5847;SDS011;8756;49.29324300;8.70599800;2022-08-19T06:54:06;35.43;;;23.53;;
5847;SDS011;8756;49.29324300;8.70599800;2022-08-19T06:56:32;36.17;;;22.67;;
5847;SDS011;8756;49.29324300;8.70599800;2022-08-19T06:59:05;34.60;;;22.00;;
5847;SDS011;8756;49.29324300;8.70599800;2022-08-19T07:01:40;36.53;;;20.67;;
5847;SDS011;8756;49.29324300;8.70599800;2022-08-19T07:04:12;32.27;;;21.17;;
5847;SDS011;8756;49.29324300;8.70599800;2022-08-19T07:06:40;34.13;;;20.07;;
5847;SDS011;8756;49.29324300;8.70599800;2022-08-19T07:09:07;31.53;;;20.97;;
5847;SDS011;8756;49.29324300;8.70599800;2022-08-19T07:11:34;30.87;;;19.63;;
5847;SDS011;8756;49.29324300;8.70599800;2022-08-19T07:14:00;30.87;;;20.50;;
5847;SDS011;8756;49.29324300;8.70599800;2022-08-19T07:16:27;31.00;;;20.27;;
5847;SDS011;8756;49.29324300;8.70599800;2022-08-19T07:18:53;33.87;;;21.20;;
5847;SDS011;8756;49.29324300;8.70599800;2022-08-19T07:21:21;34.70;;;22.50;;
5847;SDS011;8756;49.29324300;8.70599800;2022-08-19T07:23:53;32.80;;;19.77;;
5847;SDS011;8756;49.29324300;8.70599800;2022-08-19T07:26:26;29.93;;;19.60;;
5847;SDS011;8756;49.29324300;8.70599800;2022-08-19T07:28:53;33.27;;;20.30;;
5847;SDS011;8756;49.29324300;8.70599800;2022-08-19T07:31:21;28.50;;;18.90;;
5847;SDS011;8756;49.29324300;8.70599800;2022-08-19T07:33:49;35.00;;;18.57;;
5847;SDS011;8756;49.29324300;8.70599800;2022-08-19T07:36:19;30.87;;;19.20;;
5847;SDS011;8756;49.29324300;8.70599800;2022-08-19T07:38:50;31.43;;;18.03;;
5847;SDS011;8756;49.29324300;8.70599800;2022-08-19T07:41:21;34.13;;;19.40;;
5847;SDS011;8756;49.29324300;8.70599800;2022-08-19T07:43:49;27.73;;;17.77;;
5847;SDS011;8756;49.29324300;8.70599800;2022-08-19T07:46:15;33.53;;;18.93;;
5847;SDS011;8756;49.29324300;8.70599800;2022-08-19T07:48:45;33.03;;;18.73;;
5847;SDS011;8756;49.29324300;8.70599800;2022-08-19T07:51:12;27.70;;;17.20;;
5847;SDS011;8756;49.29324300;8.70599800;2022-08-19T07:53:39;26.97;;;16.70;;
5847;SDS011;8756;49.29324300;8.70599800;2022-08-19T07:56:05;29.90;;;17.20;;
5847;SDS011;8756;49.29324300;8.70599800;2022-08-19T07:58:32;30.63;;;15.03;;
5847;SDS011;8756;49.29324300;8.70599800;2022-08-19T08:01:00;26.07;;;16.53;;
5847;SDS011;8756;49.29324300;8.70599800;2022-08-19T08:03:27;27.00;;;18.27;;
5847;SDS011;8756;49.29324300;8.70599800;2022-08-19T08:06:13;28.30;;;17.00;;
5847;SDS011;8756;49.29324300;8.70599800;2022-08-19T08:08:58;30.50;;;17.37;;
5847;SDS011;8756;49.29324300;8.70599800;2022-08-19T08:11:56;28.47;;;17.17;;
5847;SDS011;8756;49.29324300;8.70599800;2022-08-19T08:14:26;25.20;;;16.80;;
5847;SDS011;8756;49.29324300;8.70599800;2022-08-19T08:16:56;29.83;;;19.30;;
5847;SDS011;8756;49.29324300;8.70599800;2022-08-19T08:19:22;29.23;;;16.50;;
5847;SDS011;8756;49.29324300;8.70599800;2022-08-19T08:21:50;25.33;;;15.67;;
5847;SDS011;8756;49.29324300;8.70599800;2022-08-19T08:24:16;23.90;;;15.33;;
5847;SDS011;8756;49.29324300;8.70599800;2022-08-19T08:26:42;24.93;;;16.40;;
5847;SDS011;8756;49.29324300;8.70599800;2022-08-19T08:29:09;30.93;;;15.53;;
5847;SDS011;8756;49.29324300;8.70599800;2022-08-19T08:31:38;22.27;;;15.27;;
5847;SDS011;8756;49.29324300;8.70599800;2022-08-19T08:34:04;25.73;;;15.60;;
5847;SDS011;8756;49.29324300;8.70599800;2022-08-19T08:36:30;24.53;;;14.67;;
5847;SDS011;8756;49.29324300;8.70599800;2022-08-19T08:38:58;22.77;;;13.77;;
5847;SDS011;8756;49.29324300;8.70599800;2022-08-19T08:44:28;19.17;;;12.27;;
5847;SDS011;8756;49.29324300;8.70599800;2022-08-19T08:47:10;26.83;;;13.33;;
5847;SDS011;8756;49.29324300;8.70599800;2022-08-19T08:52:28;25.90;;;13.67;;
5847;SDS011;8756;49.29324300;8.70599800;2022-08-19T08:55:05;173.93;;;22.10;;
5847;SDS011;8756;49.29324300;8.70599800;2022-08-19T08:57:36;26.00;;;12.70;;
5847;SDS011;8756;49.29324300;8.70599800;2022-08-19T09:00:20;24.60;;;11.10;;
5847;SDS011;8756;49.29324300;8.70599800;2022-08-19T09:02:52;80.03;;;15.60;;
5847;SDS011;8756;49.29324300;8.70599800;2022-08-19T09:05:20;26.53;;;11.00;;
5847;SDS011;8756;49.29324300;8.70599800;2022-08-19T09:08:07;22.23;;;11.40;;
5847;SDS011;8756;49.29324300;8.70599800;2022-08-19T09:10:43;20.83;;;11.30;;
5847;SDS011;8756;49.29324300;8.70599800;2022-08-19T09:15:43;18.90;;;8.80;;
5847;SDS011;8756;49.29324300;8.70599800;2022-08-19T09:18:13;906.27;;;81.57;;
5847;SDS011;8756;49.29324300;8.70599800;2022-08-19T09:20:41;19.80;;;9.57;;
5847;SDS011;8756;49.29324300;8.70599800;2022-08-19T09:23:07;26.83;;;8.70;;
5847;SDS011;8756;49.29324300;8.70599800;2022-08-19T09:25:33;17.07;;;9.27;;
5847;SDS011;8756;49.29324300;8.70599800;2022-08-19T09:27:59;17.77;;;9.70;;
5847;SDS011;8756;49.29324300;8.70599800;2022-08-19T09:30:28;21.07;;;9.67;;
5847;SDS011;8756;49.29324300;8.70599800;2022-08-19T09:32:56;16.87;;;8.30;;
5847;SDS011;8756;49.29324300;8.70599800;2022-08-19T09:35:23;16.33;;;7.77;;
5847;SDS011;8756;49.29324300;8.70599800;2022-08-19T09:37:51;17.70;;;7.90;;
5847;SDS011;8756;49.29324300;8.70599800;2022-08-19T09:40:17;16.60;;;8.37;;
5847;SDS011;8756;49.29324300;8.70599800;2022-08-19T09:42:45;18.30;;;9.80;;
5847;SDS011;8756;49.29324300;8.70599800;2022-08-19T09:45:12;16.50;;;8.90;;
5847;SDS011;8756;49.29324300;8.70599800;2022-08-19T09:47:46;18.47;;;9.20;;
5847;SDS011;8756;49.29324300;8.70599800;2022-08-19T09:50:11;16.40;;;8.67;;
5847;SDS011;8756;49.29324300;8.70599800;2022-08-19T09:52:37;18.77;;;10.00;;
5847;SDS011;8756;49.29324300;8.70599800;2022-08-19T09:55:04;17.93;;;7.80;;
5847;SDS011;8756;49.29324300;8.70599800;2022-08-19T09:57:30;20.57;;;8.07;;
5847;SDS011;8756;49.29324300;8.70599800;2022-08-19T09:59:56;16.53;;;7.60;;
5847;SDS011;8756;49.29324300;8.70599800;2022-08-19T10:02:22;19.67;;;8.13;;
5847;SDS011;8756;49.29324300;8.70599800;2022-08-19T10:04:47;15.90;;;7.70;;
5847;SDS011;8756;49.29324300;8.70599800;2022-08-19T10:07:31;17.87;;;8.50;;
5847;SDS011;8756;49.29324300;8.70599800;2022-08-19T10:09:57;19.30;;;8.40;;
5847;SDS011;8756;49.29324300;8.70599800;2022-08-19T10:12:23;16.90;;;7.87;;
5847;SDS011;8756;49.29324300;8.70599800;2022-08-19T10:14:48;15.40;;;6.90;;
5847;SDS011;8756;49.29324300;8.70599800;2022-08-19T10:17:16;18.97;;;8.00;;
5847;SDS011;8756;49.29324300;8.70599800;2022-08-19T10:19:42;15.40;;;6.87;;
5847;SDS011;8756;49.29324300;8.70599800;2022-08-19T10:22:08;14.10;;;6.27;;
5847;SDS011;8756;49.29324300;8.70599800;2022-08-19T10:24:36;15.50;;;6.33;;
5847;SDS011;8756;49.29324300;8.70599800;2022-08-19T10:27:01;15.33;;;6.70;;
5847;SDS011;8756;49.29324300;8.70599800;2022-08-19T10:29:29;15.93;;;5.70;;
5847;SDS011;8756;49.29324300;8.70599800;2022-08-19T10:31:56;24.90;;;7.50;;
5847;SDS011;8756;49.29324300;8.70599800;2022-08-19T10:34:23;15.23;;;5.83;;
5847;SDS011;8756;49.29324300;8.70599800;2022-08-19T10:36:49;15.93;;;7.17;;
5847;SDS011;8756;49.29324300;8.70599800;2022-08-19T10:39:16;14.20;;;6.73;;
5847;SDS011;8756;49.29324300;8.70599800;2022-08-19T10:41:41;18.93;;;7.63;;
5847;SDS011;8756;49.29324300;8.70599800;2022-08-19T10:44:09;15.37;;;7.07;;
5847;SDS011;8756;49.29324300;8.70599800;2022-08-19T10:46:36;16.20;;;7.63;;
5847;SDS011;8756;49.29324300;8.70599800;2022-08-19T10:49:07;15.67;;;8.07;;
5847;SDS011;8756;49.29324300;8.70599800;2022-08-19T10:51:34;15.70;;;7.10;;
5847;SDS011;8756;49.29324300;8.70599800;2022-08-19T10:54:19;18.67;;;8.23;;
5847;SDS011;8756;49.29324300;8.70599800;2022-08-19T10:56:45;17.13;;;7.63;;
5847;SDS011;8756;49.29324300;8.70599800;2022-08-19T10:59:24;32.13;;;7.67;;
5847;SDS011;8756;49.29324300;8.70599800;2022-08-19T11:01:52;16.10;;;6.20;;
5847;SDS011;8756;49.29324300;8.70599800;2022-08-19T11:04:19;16.30;;;7.37;;
5847;SDS011;8756;49.29324300;8.70599800;2022-08-19T11:06:47;15.83;;;7.17;;
5847;SDS011;8756;49.29324300;8.70599800;2022-08-19T11:09:14;15.27;;;6.50;;
5847;SDS011;8756;49.29324300;8.70599800;2022-08-19T11:11:54;14.47;;;6.07;;
5847;SDS011;8756;49.29324300;8.70599800;2022-08-19T11:14:21;14.07;;;5.83;;
5847;SDS011;8756;49.29324300;8.70599800;2022-08-19T11:16:50;15.27;;;6.20;;
5847;SDS011;8756;49.29324300;8.70599800;2022-08-19T11:19:20;13.67;;;6.43;;
5847;SDS011;8756;49.29324300;8.70599800;2022-08-19T11:21:48;14.50;;;7.03;;
5847;SDS011;8756;49.29324300;8.70599800;2022-08-19T11:24:16;16.73;;;7.30;;
5847;SDS011;8756;49.29324300;8.70599800;2022-08-19T11:26:45;14.07;;;7.07;;
5847;SDS011;8756;49.29324300;8.70599800;2022-08-19T11:29:14;16.00;;;6.60;;
5847;SDS011;8756;49.29324300;8.70599800;2022-08-19T11:31:42;15.40;;;7.80;;
5847;SDS011;8756;49.29324300;8.70599800;2022-08-19T11:34:11;15.60;;;7.70;;
5847;SDS011;8756;49.29324300;8.70599800;2022-08-19T11:36:39;15.50;;;7.80;;
5847;SDS011;8756;49.29324300;8.70599800;2022-08-19T11:39:08;38.30;;;9.40;;
5847;SDS011;8756;49.29324300;8.70599800;2022-08-19T11:41:34;15.00;;;7.20;;
5847;SDS011;8756;49.29324300;8.70599800;2022-08-19T11:44:00;16.13;;;7.83;;
5847;SDS011;8756;49.29324300;8.70599800;2022-08-19T11:46:28;16.80;;;8.00;;
5847;SDS011;8756;49.29324300;8.70599800;2022-08-19T11:48:54;15.97;;;9.00;;
5847;SDS011;8756;49.29324300;8.70599800;2022-08-19T11:51:22;18.07;;;8.00;;
5847;SDS011;8756;49.29324300;8.70599800;2022-08-19T11:53:49;14.20;;;8.10;;
5847;SDS011;8756;49.29324300;8.70599800;2022-08-19T11:56:15;21.60;;;10.37;;
5847;SDS011;8756;49.29324300;8.70599800;2022-08-19T11:58:42;17.70;;;10.30;;
5847;SDS011;8756;49.29324300;8.70599800;2022-08-19T12:01:08;19.20;;;11.00;;
5847;SDS011;8756;49.29324300;8.70599800;2022-08-19T12:03:36;18.17;;;10.70;;
5847;SDS011;8756;49.29324300;8.70599800;2022-08-19T12:06:05;17.70;;;9.40;;
5847;SDS011;8756;49.29324300;8.70599800;2022-08-19T12:08:32;16.23;;;9.10;;
5847;SDS011;8756;49.29324300;8.70599800;2022-08-19T12:10:57;16.10;;;8.40;;
5847;SDS011;8756;49.29324300;8.70599800;2022-08-19T12:13:26;19.03;;;8.60;;
5847;SDS011;8756;49.29324300;8.70599800;2022-08-19T12:15:53;17.33;;;9.40;;
5847;SDS011;8756;49.29324300;8.70599800;2022-08-19T12:18:19;14.10;;;7.40;;
5847;SDS011;8756;49.29324300;8.70599800;2022-08-19T12:20:45;15.63;;;9.13;;
5847;SDS011;8756;49.29324300;8.70599800;2022-08-19T12:23:11;18.20;;;9.10;;
5847;SDS011;8756;49.29324300;8.70599800;2022-08-19T12:25:37;16.43;;;9.80;;
5847;SDS011;8756;49.29324300;8.70599800;2022-08-19T12:28:17;17.40;;;8.33;;
5847;SDS011;8756;49.29324300;8.70599800;2022-08-19T12:30:44;15.80;;;9.07;;
5847;SDS011;8756;49.29324300;8.70599800;2022-08-19T12:33:10;15.10;;;7.70;;
5847;SDS011;8756;49.29324300;8.70599800;2022-08-19T12:35:39;14.90;;;8.50;;
5847;SDS011;8756;49.29324300;8.70599800;2022-08-19T12:38:06;18.80;;;8.17;;
5847;SDS011;8756;49.29324300;8.70599800;2022-08-19T12:40:32;14.80;;;8.07;;
5847;SDS011;8756;49.29324300;8.70599800;2022-08-19T12:42:57;14.87;;;7.77;;
5847;SDS011;8756;49.29324300;8.70599800;2022-08-19T12:45:24;15.03;;;7.90;;
5847;SDS011;8756;49.29324300;8.70599800;2022-08-19T12:47:49;15.73;;;7.30;;
5847;SDS011;8756;49.29324300;8.70599800;2022-08-19T12:50:16;14.60;;;8.17;;
5847;SDS011;8756;49.29324300;8.70599800;2022-08-19T12:52:42;14.90;;;7.90;;
5847;SDS011;8756;49.29324300;8.70599800;2022-08-19T12:55:07;16.43;;;8.37;;
5847;SDS011;8756;49.29324300;8.70599800;2022-08-19T12:57:35;13.97;;;7.30;;
5847;SDS011;8756;49.29324300;8.70599800;2022-08-19T13:02:39;15.53;;;8.53;;
5847;SDS011;8756;49.29324300;8.70599800;2022-08-19T13:05:07;14.80;;;8.23;;
5847;SDS011;8756;49.29324300;8.70599800;2022-08-19T13:07:36;14.07;;;7.80;;
5847;SDS011;8756;49.29324300;8.70599800;2022-08-19T13:10:03;16.20;;;8.30;;